Time;durP1;ratioP1;P1;durP2;ratioP2;P2;SDS_P1;SDS_P2;PMS_P1;PMS_P2;Temp;Humidity;BMP_temperature;BMP_pressure;BME280_temperature;BME280_humidity;BME280_pressure;Samples;Min_cycle;Max_cycle;Signal;HPM_P1;HPM_P2
2023/07/29 01:53:33;;;;;;;11.90;7.00;;;;;;;;;;6266932;22;20063;-95
2023/07/29 01:56:02;;;;;;;12.35;7.03;;;;;;;;;;6228502;23;20012;-94
2023/07/29 01:58:29;;;;;;;11.27;7.13;;;;;;;;;;6227749;23;20087;-94
2023/07/29 02:00:56;;;;;;;12.30;7.75;;;;;;;;;;6228051;23;20008;-95
2023/07/29 02:03:25;;;;;;;11.77;7.18;;;;;;;;;;6228195;23;20059;-95
2023/07/29 02:06:14;;;;;;;12.85;7.25;;;;;;;;;;6230185;23;20458;-96
2023/07/29 02:08:40;;;;;;;16.70;7.30;;;;;;;;;;6228767;23;20007;-95
2023/07/29 02:11:14;;;;;;;14.07;7.90;;;;;;;;;;6228604;23;20795;-94
2023/07/29 02:13:58;;;;;;;16.92;7.60;;;;;;;;;;6254055;23;20253;-96
2023/07/29 02:16:39;;;;;;;15.00;6.95;;;;;;;;;;6228702;23;20008;-95
2023/07/29 02:22:13;;;;;;;14.07;7.55;;;;;;;;;;6233548;23;20000;-95
2023/07/29 02:24:53;;;;;;;;;;;;;;;;;;;;;
2023/07/29 02:27:36;;;;;;;15.68;6.47;;;;;;;;;;6247870;23;20028;-95
2023/07/29 02:32:54;;;;;;;16.20;7.45;;;;;;;;;;6198162;23;20016;-95
2023/07/29 02:35:24;;;;;;;15.98;7.68;;;;;;;;;;6200705;23;20016;-96
2023/07/29 02:37:54;;;;;;;16.05;8.68;;;;;;;;;;6202316;23;20008;-95
2023/07/29 02:40:26;;;;;;;12.25;7.72;;;;;;;;;;6226475;23;20008;-96
2023/07/29 02:42:56;;;;;;;13.52;8.07;;;;;;;;;;6226483;23;20008;-95
2023/07/29 02:45:25;;;;;;;17.73;7.32;;;;;;;;;;6222010;23;20460;-95
2023/07/29 02:48:03;;;;;;;13.15;8.00;;;;;;;;;;6223191;23;20035;-94
2023/07/29 02:50:30;;;;;;;12.65;7.75;;;;;;;;;;6201302;23;20008;-95
2023/07/29 02:53:02;;;;;;;17.05;8.13;;;;;;;;;;6230306;22;20024;-94
2023/07/29 02:55:28;;;;;;;11.68;7.28;;;;;;;;;;6249479;23;20008;-96
2023/07/29 02:58:06;;;;;;;11.45;6.70;;;;;;;;;;6250616;23;20286;-95
2023/07/29 03:00:43;;;;;;;13.18;8.05;;;;;;;;;;6252713;23;20059;-95
2023/07/29 03:06:22;;;;;;;14.18;8.02;;;;;;;;;;6191927;23;20127;-95
2023/07/29 03:09:06;;;;;;;14.70;7.57;;;;;;;;;;6247916;23;20073;-95
2023/07/29 03:11:40;;;;;;;18.42;7.80;;;;;;;;;;6222885;23;20012;-96
2023/07/29 03:14:16;;;;;;;19.73;7.88;;;;;;;;;;6226530;23;20023;-95
2023/07/29 03:16:58;;;;;;;15.38;7.55;;;;;;;;;;6253999;23;20011;-94
2023/07/29 03:19:56;;;;;;;;;;;;;;;;;;;;;
2023/07/29 03:22:42;;;;;;;;;;;;;;;;;;;;;
2023/07/29 03:25:20;;;;;;;15.77;7.75;;;;;;;;;;6252766;23;20028;-95
2023/07/29 03:28:08;;;;;;;15.10;6.80;;;;;;;;;;6252332;23;20516;-94
2023/07/29 03:30:41;;;;;;;18.63;7.88;;;;;;;;;;6230283;23;20016;-95
2023/07/29 03:36:05;;;;;;;20.67;7.30;;;;;;;;;;6253676;23;20098;-95
2023/07/29 03:38:35;;;;;;;11.85;7.38;;;;;;;;;;6253251;23;20469;-95
2023/07/29 03:41:22;;;;;;;19.98;7.55;;;;;;;;;;6229897;23;20086;-95
2023/07/29 03:43:48;;;;;;;13.40;7.22;;;;;;;;;;6238094;23;20008;-95
2023/07/29 03:46:21;;;;;;;15.02;7.10;;;;;;;;;;6226983;23;20019;-95
2023/07/29 03:51:51;;;;;;;12.88;6.85;;;;;;;;;;6251506;23;20012;-95
2023/07/29 03:54:24;;;;;;;11.93;6.75;;;;;;;;;;6282217;22;20050;-94
2023/07/29 03:56:56;;;;;;;10.85;6.28;;;;;;;;;;6233095;22;20014;-96
2023/07/29 03:59:34;;;;;;;16.50;7.00;;;;;;;;;;6255477;22;20095;-94
2023/07/29 04:02:37;;;;;;;;;;;;;;;;;;;;;
2023/07/29 04:05:38;;;;;;;14.95;5.90;;;;;;;;;;6278781;22;20019;-95
2023/07/29 04:08:01;;;;;;;14.45;6.57;;;;;;;;;;6280060;22;20031;-94
2023/07/29 04:10:58;;;;;;;;;;;;;;;;;;;;;
2023/07/29 04:13:38;;;;;;;14.65;5.80;;;;;;;;;;6283529;22;20023;-95
2023/07/29 04:16:11;;;;;;;13.48;6.32;;;;;;;;;;6257249;22;20007;-94
2023/07/29 04:19:16;;;;;;;13.45;5.93;;;;;;;;;;6231961;22;20023;-94
2023/07/29 04:21:52;;;;;;;;;;;;;;;;;;;;;
2023/07/29 04:24:37;;;;;;;13.35;6.07;;;;;;;;;;6284924;22;20034;-95
2023/07/29 04:27:15;;;;;;;13.57;5.63;;;;;;;;;;6231900;22;20012;-95
2023/07/29 04:30:09;;;;;;;11.32;5.60;;;;;;;;;;6256957;22;20000;-94
2023/07/29 04:33:22;;;;;;;11.93;5.50;;;;;;;;;;6278523;22;20028;-95
2023/07/29 04:38:38;;;;;;;22.20;5.55;;;;;;;;;;6261831;22;20038;-95
2023/07/29 04:41:09;;;;;;;13.68;5.05;;;;;;;;;;6232554;22;20004;-95
2023/07/29 04:43:52;;;;;;;;;;;;;;;;;;;;;
2023/07/29 04:46:38;;;;;;;6.78;4.47;;;;;;;;;;6285671;22;20031;-95
2023/07/29 04:49:30;;;;;;;8.57;4.55;;;;;;;;;;6256181;22;20007;-94
2023/07/29 04:51:59;;;;;;;9.85;4.47;;;;;;;;;;6258594;22;20011;-95
2023/07/29 04:54:32;;;;;;;9.25;4.28;;;;;;;;;;6230697;22;20036;-95
2023/07/29 04:57:39;;;;;;;7.70;3.80;;;;;;;;;;6228422;23;20008;-95
2023/07/29 05:03:02;;;;;;;8.35;3.05;;;;;;;;;;6229678;23;20046;-95
2023/07/29 05:05:30;;;;;;;7.90;3.90;;;;;;;;;;6200456;23;20012;-95
2023/07/29 05:08:02;;;;;;;11.90;3.63;;;;;;;;;;6203445;23;20016;-95
2023/07/29 05:10:37;;;;;;;5.30;2.88;;;;;;;;;;6228886;23;19988;-95
2023/07/29 05:13:09;;;;;;;7.55;3.00;;;;;;;;;;6204799;23;20023;-95
2023/07/29 05:15:39;;;;;;;13.57;3.30;;;;;;;;;;6229054;23;20152;-95
2023/07/29 05:18:15;;;;;;;7.30;4.13;;;;;;;;;;6228254;23;20015;-96
2023/07/29 05:20:56;;;;;;;7.05;2.90;;;;;;;;;;6203118;23;20031;-95
2023/07/29 05:26:41;;;;;;;12.00;3.25;;;;;;;;;;6208684;23;20011;-96
2023/07/29 05:29:16;;;;;;;10.45;3.58;;;;;;;;;;6227755;23;20009;-95
2023/07/29 05:31:45;;;;;;;7.10;2.78;;;;;;;;;;6227120;23;20320;-94
2023/07/29 05:34:21;;;;;;;6.30;2.85;;;;;;;;;;6202480;23;20332;-94
2023/07/29 05:37:05;;;;;;;6.90;2.85;;;;;;;;;;6218076;23;20000;-95
2023/07/29 05:39:45;;;;;;;6.40;2.60;;;;;;;;;;6201787;23;20619;-94
2023/07/29 05:42:23;;;;;;;10.07;2.88;;;;;;;;;;6228433;23;20051;-95
2023/07/29 05:44:56;;;;;;;7.63;2.70;;;;;;;;;;6227218;23;20063;-94
2023/07/29 05:47:45;;;;;;;5.97;2.78;;;;;;;;;;6200393;23;20008;-95
2023/07/29 05:50:54;;;;;;;;;;;;;;;;;;;;;
2023/07/29 05:53:32;;;;;;;11.60;2.90;;;;;;;;;;6217153;22;20047;-95
2023/07/29 05:56:14;;;;;;;13.57;2.97;;;;;;;;;;6257665;22;20046;-94
2023/07/29 05:58:57;;;;;;;6.70;2.90;;;;;;;;;;6233437;22;20012;-95
2023/07/29 06:07:30;;;;;;;8.32;2.88;;;;;;;;;;6280089;22;19938;-94
2023/07/29 06:10:03;;;;;;;8.00;3.05;;;;;;;;;;6258629;22;20016;-94
2023/07/29 06:12:48;;;;;;;4.57;3.00;;;;;;;;;;6233483;22;20039;-94
2023/07/29 06:15:19;;;;;;;8.05;2.78;;;;;;;;;;6259345;22;20035;-95
2023/07/29 06:18:06;;;;;;;8.65;2.80;;;;;;;;;;6290108;22;20004;-94
2023/07/29 06:20:35;;;;;;;5.40;2.80;;;;;;;;;;6237846;22;20058;-94
2023/07/29 06:23:02;;;;;;;5.95;3.00;;;;;;;;;;6265843;22;20003;-95
2023/07/29 06:25:48;;;;;;;6.25;2.25;;;;;;;;;;6262913;22;20011;-94
2023/07/29 06:28:17;;;;;;;3.72;2.20;;;;;;;;;;6263808;22;20029;-95
2023/07/29 06:30:54;;;;;;;6.15;2.95;;;;;;;;;;6238075;22;20039;-94
2023/07/29 06:33:41;;;;;;;3.00;2.22;;;;;;;;;;6264506;22;20015;-94
2023/07/29 06:36:08;;;;;;;9.05;2.90;;;;;;;;;;6262795;22;20004;-94
2023/07/29 06:38:38;;;;;;;9.10;3.33;;;;;;;;;;6239173;22;20011;-94
2023/07/29 06:41:27;;;;;;;6.28;2.72;;;;;;;;;;6264064;22;20004;-94
2023/07/29 06:46:52;;;;;;;;;;;;;;;;;;;;;
2023/07/29 06:49:29;;;;;;;6.90;2.38;;;;;;;;;;6265482;22;20042;-94
2023/07/29 06:51:57;;;;;;;16.02;2.85;;;;;;;;;;6259727;22;20523;-95
2023/07/29 06:54:42;;;;;;;6.30;2.97;;;;;;;;;;6235520;22;20030;-95
2023/07/29 06:57:38;;;;;;;10.40;3.35;;;;;;;;;;6260014;22;20011;-95
2023/07/29 07:00:09;;;;;;;8.25;2.70;;;;;;;;;;6259917;22;20008;-94
2023/07/29 07:02:44;;;;;;;8.40;3.13;;;;;;;;;;6252589;23;20011;-95
2023/07/29 07:08:38;;;;;;;5.78;2.78;;;;;;;;;;6238251;23;20047;-94
2023/07/29 07:11:13;;;;;;;5.45;3.10;;;;;;;;;;6218546;23;20009;-95
2023/07/29 07:13:44;;;;;;;9.95;3.33;;;;;;;;;;6222395;23;20012;-95
2023/07/29 07:16:17;;;;;;;7.75;3.28;;;;;;;;;;6224704;23;20090;-94
2023/07/29 07:18:59;;;;;;;6.97;2.55;;;;;;;;;;6224658;23;20008;-96
2023/07/29 07:21:34;;;;;;;8.75;3.25;;;;;;;;;;6223411;23;20012;-96
2023/07/29 07:24:12;;;;;;;11.77;3.13;;;;;;;;;;6223311;23;20334;-95
2023/07/29 07:26:58;;;;;;;5.40;2.95;;;;;;;;;;6184151;23;20013;-95
2023/07/29 07:29:28;;;;;;;9.40;3.38;;;;;;;;;;6223726;23;20414;-94
2023/07/29 07:32:08;;;;;;;11.90;3.45;;;;;;;;;;6224167;23;20004;-95
2023/07/29 07:38:21;;;;;;;;;;;;;;;;;;;;;
2023/07/29 07:41:16;;;;;;;7.18;3.28;;;;;;;;;;6076930;23;20027;-95
2023/07/29 07:44:19;;;;;;;;;;;;;;;;;;;;;
2023/07/29 07:47:23;;;;;;;;;;;;;;;;;;;;;
2023/07/29 07:56:59;;;;;;;8.48;3.38;;;;;;;;;;5946858;24;20027;-95
2023/07/29 07:59:41;;;;;;;;;;;;;;;;;;;;;
2023/07/29 11:07:36;;;;;;;6.47;1.48;;;;;;;;;;6240370;23;20059;-93
2023/07/29 11:10:11;;;;;;;1.92;1.52;;;;;;;;;;6238073;22;20050;-95
2023/07/29 11:12:40;;;;;;;6.57;1.80;;;;;;;;;;6265212;22;20007;-95
2023/07/29 11:15:18;;;;;;;6.82;1.75;;;;;;;;;;6262736;22;20003;-95
2023/07/29 11:17:58;;;;;;;2.65;1.48;;;;;;;;;;6264671;22;20024;-93
2023/07/29 11:20:26;;;;;;;7.10;1.55;;;;;;;;;;6241370;22;20036;-94
2023/07/29 11:22:54;;;;;;;7.75;3.38;;;;;;;;;;6261543;22;20042;-93
2023/07/29 11:28:15;;;;;;;3.22;1.40;;;;;;;;;;6171782;23;20017;-96
2023/07/29 11:30:52;;;;;;;5.57;1.67;;;;;;;;;;6144218;23;20070;-96
2023/07/29 11:33:39;;;;;;;1.80;1.27;;;;;;;;;;6167654;23;20009;-93
2023/07/29 11:56:53;;;;;;;7.13;2.40;;;;;;;;;;6226226;22;19924;-93
2023/07/29 11:59:28;;;;;;;3.17;1.70;;;;;;;;;;6175812;23;20045;-95
2023/07/29 12:02:00;;;;;;;2.45;1.80;;;;;;;;;;6170899;23;20009;-95
2023/07/29 12:04:27;;;;;;;4.70;2.03;;;;;;;;;;6192834;23;20106;-95
2023/07/29 12:06:53;;;;;;;4.78;1.55;;;;;;;;;;6168097;23;20017;-91
2023/07/29 12:09:29;;;;;;;8.52;1.73;;;;;;;;;;6191759;23;20016;-94
2023/07/29 12:11:56;;;;;;;5.53;2.20;;;;;;;;;;6200441;23;20005;-94
2023/07/29 12:14:28;;;;;;;2.97;1.77;;;;;;;;;;6192644;23;20130;-94
2023/07/29 12:17:12;;;;;;;3.92;1.88;;;;;;;;;;6174073;23;20013;-94
2023/07/29 12:19:49;;;;;;;4.82;2.20;;;;;;;;;;6173268;23;20009;-95
2023/07/29 12:22:21;;;;;;;5.45;1.85;;;;;;;;;;6197025;23;20039;-94
2023/07/29 12:25:15;;;;;;;;;;;;;;;;;;;;;
2023/07/29 12:27:57;;;;;;;4.10;1.88;;;;;;;;;;6198660;23;20040;-95
2023/07/29 12:30:34;;;;;;;4.72;1.55;;;;;;;;;;6195968;23;20004;-95
2023/07/29 12:33:24;;;;;;;6.63;1.83;;;;;;;;;;6170166;23;20016;-94
2023/07/29 12:35:58;;;;;;;6.85;2.05;;;;;;;;;;6194525;23;20005;-94
2023/07/29 12:38:36;;;;;;;2.03;1.75;;;;;;;;;;6169302;23;20013;-93
2023/07/29 12:41:06;;;;;;;1.90;1.58;;;;;;;;;;6190656;23;20037;-95
2023/07/29 12:43:35;;;;;;;3.65;1.80;;;;;;;;;;6168954;23;20009;-94
2023/07/29 12:46:07;;;;;;;2.80;1.80;;;;;;;;;;6170184;23;20024;-95
2023/07/29 12:48:39;;;;;;;6.32;1.73;;;;;;;;;;6170900;23;20064;-95
2023/07/29 12:51:14;;;;;;;3.55;2.00;;;;;;;;;;6169351;23;20017;-95
2023/07/29 12:53:40;;;;;;;4.43;1.92;;;;;;;;;;6162417;23;20013;-94
2023/07/29 12:56:06;;;;;;;5.97;1.90;;;;;;;;;;6169584;23;20401;-95
2023/07/29 12:58:39;;;;;;;3.75;2.45;;;;;;;;;;6222804;22;20025;-94
2023/07/29 13:01:05;;;;;;;6.03;2.20;;;;;;;;;;6199195;23;20013;-95
2023/07/29 13:03:37;;;;;;;6.93;2.35;;;;;;;;;;6225020;23;20032;-95
2023/07/29 13:06:12;;;;;;;5.45;2.15;;;;;;;;;;6199826;23;20016;-95
2023/07/29 13:08:38;;;;;;;7.43;1.90;;;;;;;;;;6226838;23;20020;-95
2023/07/29 13:11:05;;;;;;;1.83;1.08;;;;;;;;;;6200470;23;20023;-94
2023/07/29 13:13:38;;;;;;;5.10;1.50;;;;;;;;;;6199753;23;20009;-96
2023/07/29 13:16:08;;;;;;;5.53;1.95;;;;;;;;;;6227588;23;20255;-95
2023/07/29 13:18:44;;;;;;;2.28;1.67;;;;;;;;;;6227996;23;20181;-95
2023/07/29 13:26:27;;;;;;;8.20;1.83;;;;;;;;;;6230222;22;20025;-94
2023/07/29 13:28:55;;;;;;;4.55;1.05;;;;;;;;;;6202375;23;20028;-95
2023/07/29 13:31:24;;;;;;;2.83;1.40;;;;;;;;;;6203408;23;20036;-94
2023/07/29 13:33:53;;;;;;;6.07;1.42;;;;;;;;;;6201717;23;20017;-94
2023/07/29 13:36:24;;;;;;;7.75;1.70;;;;;;;;;;6200842;23;20021;-94
2023/07/29 13:38:59;;;;;;;5.50;1.70;;;;;;;;;;6199470;23;20025;-93
2023/07/29 13:41:26;;;;;;;5.13;1.85;;;;;;;;;;6202377;23;20005;-93
2023/07/29 13:46:48;;;;;;;4.55;1.70;;;;;;;;;;6223923;23;20100;-94
2023/07/29 13:49:18;;;;;;;6.40;1.63;;;;;;;;;;6205981;23;19997;-94
2023/07/29 13:51:45;;;;;;;4.10;1.40;;;;;;;;;;6202601;23;20039;-94
2023/07/29 13:54:14;;;;;;;3.70;1.58;;;;;;;;;;6176594;23;20056;-94
2023/07/29 13:56:42;;;;;;;5.40;1.52;;;;;;;;;;6204275;23;20008;-93
2023/07/29 13:59:08;;;;;;;3.80;2.03;;;;;;;;;;6201755;23;20012;-92
2023/07/29 14:01:40;;;;;;;5.95;1.73;;;;;;;;;;6201156;23;20009;-93
2023/07/29 14:04:06;;;;;;;5.45;1.50;;;;;;;;;;6203090;23;20036;-92
2023/07/29 14:06:35;;;;;;;5.20;2.00;;;;;;;;;;6227468;23;20019;-92
2023/07/29 14:09:02;;;;;;;4.95;1.85;;;;;;;;;;6197998;23;20008;-92
2023/07/29 14:11:28;;;;;;;4.63;2.95;;;;;;;;;;6204217;23;20103;-91
2023/07/29 14:13:54;;;;;;;3.88;1.88;;;;;;;;;;6201175;23;20005;-91
2023/07/29 14:16:21;;;;;;;6.18;2.50;;;;;;;;;;6225043;23;20071;-91
2023/07/29 14:18:47;;;;;;;4.65;2.30;;;;;;;;;;6202723;23;20016;-92
2023/07/29 14:21:16;;;;;;;8.77;2.10;;;;;;;;;;6200997;23;20004;-91
2023/07/29 14:23:51;;;;;;;4.10;1.35;;;;;;;;;;6198439;23;20016;-92
2023/07/29 14:26:20;;;;;;;8.53;2.13;;;;;;;;;;6203858;22;20528;-92
2023/07/29 14:29:27;;;;;;;6.63;2.08;;;;;;;;;;6202130;23;20047;-92
2023/07/29 14:31:35;;;;;;;4.38;1.83;;;;;;;;;;6210383;23;20043;-92
2023/07/29 14:34:03;;;;;;;5.13;2.03;;;;;;;;;;6203459;23;20013;-93
2023/07/29 14:36:30;;;;;;;4.32;1.85;;;;;;;;;;6199026;23;20080;-91
2023/07/29 14:38:59;;;;;;;4.95;2.03;;;;;;;;;;6202633;23;20003;-92
2023/07/29 14:41:25;;;;;;;6.22;2.10;;;;;;;;;;6200686;23;20005;-92
2023/07/29 14:43:51;;;;;;;7.75;3.20;;;;;;;;;;6203895;23;20012;-93
2023/07/29 14:46:17;;;;;;;6.97;2.13;;;;;;;;;;6201959;23;20017;-93
2023/07/29 14:51:28;;;;;;;6.25;1.85;;;;;;;;;;6226408;23;20024;-93
2023/07/29 14:53:58;;;;;;;5.97;2.13;;;;;;;;;;6198665;23;20016;-93
2023/07/29 14:56:25;;;;;;;3.78;1.85;;;;;;;;;;6224542;23;20327;-93
2023/07/29 14:58:51;;;;;;;5.63;1.80;;;;;;;;;;6199849;23;20047;-93
2023/07/29 15:04:18;;;;;;;5.10;1.70;;;;;;;;;;6199128;23;20020;-92
2023/07/29 15:06:44;;;;;;;4.13;1.75;;;;;;;;;;6198878;23;20020;-93
2023/07/29 15:09:10;;;;;;;7.30;2.28;;;;;;;;;;6198922;23;20072;-93
2023/07/29 15:11:41;;;;;;;5.88;1.73;;;;;;;;;;6197166;23;20005;-93
2023/07/29 15:14:07;;;;;;;2.65;1.50;;;;;;;;;;6198280;23;20014;-90
2023/07/29 15:16:38;;;;;;;3.65;1.70;;;;;;;;;;6222655;23;20029;-95
2023/07/29 15:19:05;;;;;;;6.80;1.83;;;;;;;;;;6196651;23;20062;-93
2023/07/29 15:21:38;;;;;;;6.15;1.80;;;;;;;;;;6197703;23;20312;-94
2023/07/29 15:24:07;;;;;;;3.22;1.50;;;;;;;;;;6198072;23;20518;-95
2023/07/29 15:26:41;;;;;;;3.97;1.70;;;;;;;;;;6197601;22;20019;-94
2023/07/29 15:29:10;;;;;;;5.32;1.40;;;;;;;;;;6198322;23;20024;-94
2023/07/29 15:31:36;;;;;;;2.03;1.40;;;;;;;;;;6195700;23;20020;-94
2023/07/29 15:34:31;;;;;;;4.38;1.60;;;;;;;;;;6198049;23;20008;-94
2023/07/29 15:37:00;;;;;;;1.75;1.30;;;;;;;;;;6187938;23;20086;-94
2023/07/29 15:39:26;;;;;;;5.97;2.13;;;;;;;;;;6195466;23;20024;-94
2023/07/29 15:41:53;;;;;;;5.95;1.73;;;;;;;;;;6197247;23;20020;-94
2023/07/29 15:44:19;;;;;;;2.17;1.40;;;;;;;;;;6199548;23;20453;-94
2023/07/29 15:46:58;;;;;;;3.13;1.65;;;;;;;;;;6196542;23;20008;-94
2023/07/29 15:49:25;;;;;;;2.65;1.20;;;;;;;;;;6197939;23;20057;-94
2023/07/29 15:51:52;;;;;;;7.25;1.52;;;;;;;;;;6194758;23;20012;-94
2023/07/29 15:54:18;;;;;;;2.63;1.40;;;;;;;;;;6196999;23;20008;-94
2023/07/29 15:56:46;;;;;;;4.88;1.25;;;;;;;;;;6194207;23;20095;-94
2023/07/29 15:59:13;;;;;;;4.53;1.60;;;;;;;;;;6196332;23;19997;-94
2023/07/29 16:01:57;;;;;;;4.85;1.60;;;;;;;;;;6199429;23;20005;-95
2023/07/29 16:04:26;;;;;;;3.97;1.10;;;;;;;;;;6199321;23;20009;-93
2023/07/29 16:06:56;;;;;;;0.82;0.45;;;;;;;;;;6224621;23;20008;-92
2023/07/29 16:20:07;;;;;;;3.25;1.40;;;;;;;;;;6222161;22;20032;-95
2023/07/29 16:22:40;;;;;;;4.50;1.30;;;;;;;;;;6199516;23;20005;-94
2023/07/29 16:25:14;;;;;;;5.15;1.60;;;;;;;;;;6199746;23;20068;-94
2023/07/29 16:27:40;;;;;;;3.70;1.40;;;;;;;;;;6197673;23;20001;-92
2023/07/29 16:30:10;;;;;;;3.17;1.33;;;;;;;;;;6198311;23;20023;-94
2023/07/29 16:32:47;;;;;;;4.25;1.20;;;;;;;;;;6196146;23;20005;-93
2023/07/29 16:35:13;;;;;;;3.85;1.10;;;;;;;;;;6197157;23;20189;-94
2023/07/29 16:37:46;;;;;;;1.70;1.35;;;;;;;;;;6196096;23;20024;-94
2023/07/29 16:40:12;;;;;;;3.03;1.10;;;;;;;;;;6196317;23;20044;-95
2023/07/29 16:42:38;;;;;;;2.70;1.30;;;;;;;;;;6194255;23;20005;-93
2023/07/29 16:45:08;;;;;;;3.75;1.20;;;;;;;;;;6194659;23;20015;-93
2023/07/29 16:47:35;;;;;;;7.25;2.10;;;;;;;;;;6195442;23;20350;-93
2023/07/29 16:50:01;;;;;;;4.78;1.05;;;;;;;;;;6200910;23;20069;-93
2023/07/29 16:52:27;;;;;;;3.90;1.08;;;;;;;;;;6200877;23;20095;-93
2023/07/29 16:54:57;;;;;;;3.17;1.30;;;;;;;;;;6222982;23;20435;-94
2023/07/29 16:57:23;;;;;;;2.90;1.50;;;;;;;;;;6197062;23;20015;-94
2023/07/29 16:59:49;;;;;;;5.40;1.23;;;;;;;;;;6209083;23;20084;-93
2023/07/29 17:10:09;;;;;;;2.47;1.30;;;;;;;;;;6181750;22;20039;-94
2023/07/29 17:13:08;;;;;;;2.53;1.10;;;;;;;;;;6174861;23;20055;-94
2023/07/29 17:15:40;;;;;;;3.33;1.40;;;;;;;;;;6203107;23;20011;-94
2023/07/29 17:28:29;;;;;;;2.03;1.50;;;;;;;;;;6142858;22;20052;-94
2023/07/29 17:31:02;;;;;;;3.15;1.92;;;;;;;;;;6136943;23;20054;-94
2023/07/29 17:33:33;;;;;;;3.78;1.02;;;;;;;;;;6112257;23;20002;-95
2023/07/29 17:36:03;;;;;;;2.28;1.02;;;;;;;;;;6134798;23;20010;-94
2023/07/29 17:38:33;;;;;;;3.53;1.60;;;;;;;;;;6110957;23;20030;-94
2023/07/29 17:41:02;;;;;;;2.13;1.13;;;;;;;;;;6134260;23;20013;-94
2023/07/29 17:43:29;;;;;;;4.03;1.33;;;;;;;;;;6132640;23;20021;-94
2023/07/29 17:45:57;;;;;;;3.45;1.20;;;;;;;;;;6111313;23;20018;-94
2023/07/29 17:48:23;;;;;;;3.50;1.10;;;;;;;;;;6109721;23;20009;-94
2023/07/29 17:50:58;;;;;;;1.95;1.27;;;;;;;;;;6112530;23;20018;-94
2023/07/29 17:53:24;;;;;;;2.78;1.05;;;;;;;;;;6111002;23;20033;-94
2023/07/29 17:55:57;;;;;;;5.55;1.48;;;;;;;;;;6135652;23;19998;-94
2023/07/29 17:58:27;;;;;;;3.75;1.00;;;;;;;;;;6137239;23;20006;-94
2023/07/29 18:00:56;;;;;;;2.17;1.13;;;;;;;;;;6119820;23;20009;-93
2023/07/29 18:03:33;;;;;;;2.70;1.10;;;;;;;;;;6140352;23;20051;-94
2023/07/29 18:06:05;;;;;;;2.35;1.15;;;;;;;;;;6163612;23;20020;-93
2023/07/29 18:09:09;;;;;;;3.78;1.30;;;;;;;;;;6165865;23;20005;-93
2023/07/29 18:11:44;;;;;;;6.38;1.15;;;;;;;;;;6080331;23;20082;-93
2023/07/29 18:14:21;;;;;;;1.95;1.10;;;;;;;;;;6056399;23;20018;-94
2023/07/29 18:17:03;;;;;;;3.75;1.00;;;;;;;;;;6108791;23;20502;-93
2023/07/29 18:19:41;;;;;;;1.05;0.95;;;;;;;;;;6147959;23;20069;-92
2023/07/29 18:22:11;;;;;;;3.60;2.97;;;;;;;;;;6145816;23;20053;-94
2023/07/29 18:24:40;;;;;;;2.78;0.90;;;;;;;;;;6144610;23;20009;-94
2023/07/29 18:27:16;;;;;;;2.90;1.33;;;;;;;;;;6144034;23;20398;-94
2023/07/29 18:29:43;;;;;;;1.92;1.20;;;;;;;;;;6145395;23;20017;-93
2023/07/29 18:32:22;;;;;;;7.95;1.73;;;;;;;;;;6168128;23;20009;-94
2023/07/29 18:38:07;;;;;;;1.88;1.25;;;;;;;;;;6170100;23;20021;-93
2023/07/29 18:40:51;;;;;;;3.95;1.23;;;;;;;;;;6146163;23;20009;-93
2023/07/29 18:43:20;;;;;;;2.72;1.40;;;;;;;;;;6164895;23;20006;-94
2023/07/29 18:46:13;;;;;;;3.42;1.77;;;;;;;;;;6143474;23;20019;-94
2023/07/29 18:48:59;;;;;;;1.70;1.25;;;;;;;;;;6135009;23;20076;-93
2023/07/29 18:57:15;;;;;;;6.03;1.52;;;;;;;;;;6166437;23;20109;-94
2023/07/29 18:59:44;;;;;;;3.20;1.83;;;;;;;;;;6142582;23;20037;-94
2023/07/29 19:05:28;;;;;;;1.63;1.30;;;;;;;;;;6105798;23;20046;-94
2023/07/29 19:08:46;;;;;;;3.58;1.90;;;;;;;;;;6166775;23;20457;-94
2023/07/29 19:11:28;;;;;;;6.57;1.80;;;;;;;;;;6166738;23;20044;-94
2023/07/29 19:17:00;;;;;;;5.28;1.73;;;;;;;;;;6158599;23;19993;-94
2023/07/29 19:19:30;;;;;;;7.35;2.10;;;;;;;;;;6161897;23;20463;-93
2023/07/29 19:21:56;;;;;;;3.42;2.03;;;;;;;;;;6141934;23;20017;-94
2023/07/29 19:24:25;;;;;;;3.08;1.67;;;;;;;;;;6139628;23;20041;-94
2023/07/29 19:26:54;;;;;;;2.67;1.90;;;;;;;;;;6162189;22;20003;-94
2023/07/29 19:29:21;;;;;;;3.40;2.08;;;;;;;;;;6160696;23;20088;-94
2023/07/29 19:31:50;;;;;;;5.03;1.67;;;;;;;;;;6160990;23;20002;-93
2023/07/29 19:37:46;;;;;;;2.92;1.80;;;;;;;;;;6138068;23;20096;-94
2023/07/29 19:40:12;;;;;;;8.38;2.00;;;;;;;;;;6140319;23;19994;-94
2023/07/29 19:42:39;;;;;;;2.55;1.73;;;;;;;;;;6163808;23;20013;-94
2023/07/29 19:45:08;;;;;;;6.60;2.08;;;;;;;;;;6140171;23;20013;-94
2023/07/29 19:47:40;;;;;;;7.18;1.88;;;;;;;;;;6139823;23;20013;-94
2023/07/29 19:50:12;;;;;;;4.35;1.92;;;;;;;;;;6162138;23;20002;-94
2023/07/29 19:55:40;;;;;;;5.18;2.83;;;;;;;;;;6104203;23;20025;-95
2023/07/29 19:58:07;;;;;;;3.75;2.00;;;;;;;;;;6126487;23;19990;-94
2023/07/29 20:00:46;;;;;;;;;;;;;;;;;;;;;
2023/07/29 20:03:13;;;;;;;3.92;2.50;;;;;;;;;;6165618;23;20033;-94
2023/07/29 20:06:06;;;;;;;4.85;1.98;;;;;;;;;;6161948;23;20009;-93
2023/07/29 20:08:35;;;;;;;4.03;2.25;;;;;;;;;;6126233;23;20075;-93
2023/07/29 20:11:01;;;;;;;4.85;2.28;;;;;;;;;;6162265;23;20137;-93
2023/07/29 20:13:31;;;;;;;8.95;2.35;;;;;;;;;;6161979;23;20070;-93
2023/07/29 20:15:58;;;;;;;3.97;2.17;;;;;;;;;;6162035;23;20005;-94
2023/07/29 20:18:32;;;;;;;6.03;1.88;;;;;;;;;;6138113;23;20012;-94
2023/07/29 20:21:20;;;;;;;7.20;2.25;;;;;;;;;;6162027;23;20035;-94
2023/07/29 20:24:05;;;;;;;4.60;2.80;;;;;;;;;;6141245;23;20009;-94
2023/07/29 20:26:35;;;;;;;6.75;2.80;;;;;;;;;;6161293;23;20016;-93
2023/07/29 20:29:07;;;;;;;7.20;2.80;;;;;;;;;;6166188;22;20030;-94
2023/07/29 20:31:34;;;;;;;6.13;2.53;;;;;;;;;;6137616;23;20064;-94
2023/07/29 20:36:59;;;;;;;6.57;2.92;;;;;;;;;;6084176;23;20050;-95
2023/07/29 20:39:25;;;;;;;8.18;3.05;;;;;;;;;;6108495;23;20428;-94
2023/07/29 20:41:59;;;;;;;5.45;3.28;;;;;;;;;;6136701;23;20093;-94
2023/07/29 20:44:27;;;;;;;3.50;2.63;;;;;;;;;;6136608;23;20017;-94
2023/07/29 20:46:55;;;;;;;9.63;3.42;;;;;;;;;;6162786;23;20010;-94
2023/07/29 20:49:23;;;;;;;10.98;3.13;;;;;;;;;;6161884;23;20025;-95
2023/07/29 20:51:49;;;;;;;7.68;3.40;;;;;;;;;;6162314;23;20010;-94
2023/07/29 20:54:16;;;;;;;5.55;3.33;;;;;;;;;;6138260;23;20010;-94
2023/07/29 20:56:51;;;;;;;13.18;3.42;;;;;;;;;;6137384;23;20546;-93
2023/07/29 20:59:24;;;;;;;11.30;3.95;;;;;;;;;;6140806;23;20016;-93
2023/07/29 21:01:50;;;;;;;11.82;3.85;;;;;;;;;;6137270;23;20012;-93
2023/07/29 21:04:17;;;;;;;8.50;3.00;;;;;;;;;;6160527;23;20009;-94
2023/07/29 21:06:44;;;;;;;8.38;4.00;;;;;;;;;;6160643;23;20018;-93
2023/07/29 21:09:19;;;;;;;8.13;3.83;;;;;;;;;;6135464;23;20096;-93
2023/07/29 21:11:47;;;;;;;6.07;3.92;;;;;;;;;;6137182;23;20037;-93
2023/07/29 21:14:18;;;;;;;8.68;3.58;;;;;;;;;;6137706;23;20324;-93
2023/07/29 21:16:46;;;;;;;7.15;3.28;;;;;;;;;;6136388;23;20013;-92
2023/07/29 21:19:15;;;;;;;10.10;3.92;;;;;;;;;;6135546;23;20032;-93
2023/07/29 21:21:41;;;;;;;5.32;3.45;;;;;;;;;;6137604;23;20383;-92
2023/07/29 21:24:11;;;;;;;6.05;3.83;;;;;;;;;;6135663;23;20014;-93
2023/07/29 21:26:37;;;;;;;7.20;3.78;;;;;;;;;;6134927;23;20024;-94
2023/07/29 21:29:07;;;;;;;8.02;3.03;;;;;;;;;;6137754;23;20066;-93
2023/07/29 21:31:33;;;;;;;11.80;3.10;;;;;;;;;;6137313;23;20017;-94
2023/07/29 21:34:00;;;;;;;10.45;3.80;;;;;;;;;;6138643;23;20065;-94
2023/07/29 21:36:26;;;;;;;11.45;3.78;;;;;;;;;;6140973;23;20005;-93
2023/07/29 21:38:53;;;;;;;9.18;3.80;;;;;;;;;;6141822;23;20021;-94
2023/07/29 21:41:19;;;;;;;7.18;3.83;;;;;;;;;;6165067;23;20006;-94
2023/07/29 21:43:50;;;;;;;5.55;3.47;;;;;;;;;;6139924;23;20013;-93
2023/07/29 21:46:24;;;;;;;9.30;3.95;;;;;;;;;;6164916;23;20040;-95
2023/07/29 21:48:59;;;;;;;11.43;3.67;;;;;;;;;;6166415;23;20013;-95
2023/07/29 21:51:50;;;;;;;;;;;;;;;;;;;;;
2023/07/29 21:54:25;;;;;;;8.13;3.33;;;;;;;;;;6171403;23;20024;-96
2023/07/29 21:56:54;;;;;;;15.77;4.22;;;;;;;;;;6170578;23;20036;-95
2023/07/29 21:59:24;;;;;;;13.48;4.13;;;;;;;;;;6145502;23;20012;-94
2023/07/29 22:01:50;;;;;;;10.60;3.55;;;;;;;;;;6142629;23;20730;-93
2023/07/29 22:04:19;;;;;;;11.77;4.10;;;;;;;;;;6162641;23;20016;-92
2023/07/29 22:06:48;;;;;;;19.60;5.13;;;;;;;;;;6139328;23;20017;-95
2023/07/29 22:09:17;;;;;;;15.02;4.65;;;;;;;;;;6139054;23;20148;-94
2023/07/29 22:12:04;;;;;;;17.08;4.18;;;;;;;;;;6163389;23;20013;-94
2023/07/29 22:14:29;;;;;;;;;;;;;;;;;;6142419;23;20045;-93
2023/07/29 22:16:59;;;;;;;20.17;7.97;;;;;;;;;;6162459;23;19931;-93
2023/07/29 22:19:25;;;;;;;9.27;4.40;;;;;;;;;;6163778;23;20359;-94
2023/07/29 22:21:51;;;;;;;17.40;4.22;;;;;;;;;;6137227;23;20021;-93
2023/07/29 22:24:19;;;;;;;10.45;4.57;;;;;;;;;;6142146;23;20048;-94
2023/07/29 22:26:58;;;;;;;15.05;4.72;;;;;;;;;;6164380;23;20009;-96
2023/07/29 22:29:27;;;;;;;14.50;5.07;;;;;;;;;;6143442;23;20025;-95
2023/07/29 22:31:54;;;;;;;12.65;3.65;;;;;;;;;;6140084;23;20017;-95
2023/07/29 22:34:29;;;;;;;15.90;6.78;;;;;;;;;;6137862;23;20571;-94
2023/07/29 22:36:55;;;;;;;29.90;5.68;;;;;;;;;;6163000;23;20010;-94
2023/07/29 22:39:24;;;;;;;14.82;4.63;;;;;;;;;;6137549;23;20124;-93
2023/07/29 22:41:51;;;;;;;12.27;4.25;;;;;;;;;;6162411;23;20001;-93
2023/07/29 22:44:17;;;;;;;14.75;4.38;;;;;;;;;;6139150;23;20041;-96
2023/07/29 22:46:52;;;;;;;19.75;4.88;;;;;;;;;;6163829;23;20005;-95
2023/07/29 22:49:18;;;;;;;25.90;7.00;;;;;;;;;;6117127;23;20013;-95